TimeCDT,TemperatureF,Dew PointF,Humidity,Sea Level PressureIn,VisibilityMPH,Wind Direction,Wind SpeedMPH,Gust SpeedMPH,PrecipitationIn,Events,Conditions,WindDirDegrees,DateUTC
12:53 AM,57.0,48.0,72,29.87,10.0,Calm,Calm,-,N/A,,Clear,0,2012-10-01 05:53:00
1:53 AM,53.1,48.0,83,29.86,10.0,Calm,Calm,-,N/A,,Clear,0,2012-10-01 06:53:00
3:53 AM,52.0,48.0,86,29.85,10.0,Calm,Calm,-,N/A,,Clear,0,2012-10-01 08:53:00
4:53 AM,53.1,48.0,83,29.86,10.0,NNE,3.5,-,N/A,,Clear,20,2012-10-01 09:53:00
5:53 AM,52.0,46.9,83,29.85,10.0,Calm,Calm,-,N/A,,Clear,0,2012-10-01 10:53:00
6:53 AM,50.0,46.0,86,29.87,10.0,North,3.5,-,N/A,,Clear,360,2012-10-01 11:53:00
7:53 AM,54.0,48.0,80,29.87,10.0,North,3.5,-,N/A,,Clear,10,2012-10-01 12:53:00
9:53 AM,61.0,46.9,60,29.88,10.0,NNE,4.6,-,N/A,,Clear,20,2012-10-01 14:53:00
10:46 AM,66.2,46.4,49,29.89,2.0,Variable,3.5,-,N/A,,Haze,0,2012-10-01 15:46:00
10:53 AM,66.9,46.9,49,29.88,10.0,NNE,3.5,-,N/A,,Clear,20,2012-10-01 15:53:00
11:53 AM,75.0,46.0,36,29.87,10.0,North,8.1,-,N/A,,Clear,360,2012-10-01 16:53:00
12:53 PM,81.0,42.1,25,29.85,10.0,North,12.7,18.4,N/A,,Clear,360,2012-10-01 17:53:00
2:53 PM,80.1,45.0,29,29.82,10.0,NNW,9.2,20.7,N/A,,Clear,340,2012-10-01 19:53:00
3:53 PM,81.0,46.9,30,29.81,10.0,North,16.1,24.2,N/A,,Clear,350,2012-10-01 20:53:00
4:53 PM,79.0,46.0,31,29.82,10.0,North,19.6,26.5,N/A,,Clear,10,2012-10-01 21:53:00
5:02 PM,78.8,46.4,32,29.83,10.0,North,16.1,24.2,N/A,,Clear,350,2012-10-01 22:02:00
5:53 PM,75.0,46.9,37,29.83,10.0,North,10.4,21.9,N/A,,Clear,350,2012-10-01 22:53:00
6:53 PM,72.0,43.0,35,29.85,10.0,North,18.4,26.5,N/A,,Clear,350,2012-10-01 23:53:00
7:53 PM,69.1,37.0,31,29.88,10.0,North,11.5,19.6,N/A,,Clear,350,2012-10-02 00:53:00
8:53 PM,64.9,39.0,39,29.89,10.0,North,6.9,-,N/A,,Clear,360,2012-10-02 01:53:00
9:53 PM,62.1,39.9,44,29.91,10.0,North,9.2,-,N/A,,Clear,350,2012-10-02 02:53:00
10:53 PM,59.0,39.9,49,29.91,10.0,North,8.1,-,N/A,,Clear,360,2012-10-02 03:53:00
11:53 PM,60.1,39.9,47,29.91,10.0,North,9.2,-,N/A,,Clear,350,2012-10-02 04:53:00